Time;durP1;ratioP1;P1;durP2;ratioP2;P2;SDS_P1;SDS_P2;PMS_P1;PMS_P2;Temp;Humidity;BMP_temperature;BMP_pressure;BME280_temperature;BME280_humidity;BME280_pressure;Samples;Min_cycle;Max_cycle;Signal;HPM_P1;HPM_P2
2021/12/14 00:02:34;;;;;;;83.50;28.53;;;0.10;99.90;;;;;;5083672;28;20694;-70
2021/12/14 00:05:26;;;;;;;92.80;27.17;;;0.00;99.90;;;;;;5083139;28;20275;-68
2021/12/14 00:08:16;;;;;;;96.67;29.77;;;-0.20;99.90;;;;;;5078759;28;20562;-69
2021/12/14 00:11:31;;;;;;;78.30;27.60;;;-0.10;99.90;;;;;;5095130;28;20483;-69
2021/12/14 00:15:02;;;;;;;85.50;28.27;;;-0.20;99.90;;;;;;5099125;28;20655;-68
2021/12/14 00:17:41;;;;;;;79.47;27.13;;;-0.30;99.90;;;;;;5095198;28;20218;-69
2021/12/14 00:20:42;;;;;;;80.83;25.53;;;-0.10;99.90;;;;;;5080515;28;20219;-69
2021/12/14 00:26:45;;;;;;;76.70;27.00;;;-0.30;99.90;;;;;;5083335;28;20593;-69
2021/12/14 00:29:38;;;;;;;85.53;30.60;;;-0.30;99.90;;;;;;5082857;28;20216;-69
2021/12/14 00:32:30;;;;;;;90.00;28.30;;;-0.40;99.90;;;;;;5097113;27;20321;-69
2021/12/14 00:35:20;;;;;;;103.27;29.70;;;-0.40;99.90;;;;;;5097264;28;20923;-70
2021/12/14 00:38:11;;;;;;;100.93;31.00;;;-0.40;99.90;;;;;;5099268;28;20313;-68
2021/12/14 00:41:07;;;;;;;102.53;30.83;;;-0.70;99.90;;;;;;5096732;28;20218;-68
2021/12/14 00:43:56;;;;;;;98.03;30.97;;;-0.50;99.90;;;;;;5100655;28;20942;-68
2021/12/14 00:46:45;;;;;;;103.73;31.97;;;-0.30;99.90;;;;;;5084273;28;20589;-72
2021/12/14 00:49:35;;;;;;;91.83;29.80;;;-0.30;99.90;;;;;;5080045;28;20774;-70
2021/12/14 00:52:25;;;;;;;97.63;31.47;;;-0.40;99.90;;;;;;5081983;28;20698;-69
2021/12/14 00:55:17;;;;;;;99.27;31.47;;;-0.50;99.90;;;;;;5093621;28;20224;-70
2021/12/14 00:58:05;;;;;;;99.90;30.57;;;-0.50;99.90;;;;;;5079953;28;20755;-69
2021/12/14 01:00:57;;;;;;;104.43;32.97;;;-0.40;99.90;;;;;;5091693;28;20230;-69
2021/12/14 01:03:49;;;;;;;98.77;31.27;;;-0.50;99.90;;;;;;5084467;28;20226;-69
2021/12/14 01:06:44;;;;;;;107.60;33.80;;;-0.30;99.90;;;;;;5095066;28;20218;-68
2021/12/14 01:09:39;;;;;;;102.30;32.93;;;-0.30;99.90;;;;;;5085903;28;20225;-69
2021/12/14 01:12:40;;;;;;;97.87;32.70;;;-0.30;99.90;;;;;;5097337;28;20219;-69
2021/12/14 01:15:51;;;;;;;87.63;31.97;;;-0.40;99.90;;;;;;5097793;28;20222;-67
2021/12/14 01:18:48;;;;;;;108.83;31.20;;;-0.40;99.90;;;;;;5093536;28;20270;-68
2021/12/14 01:21:56;;;;;;;93.87;31.80;;;-0.50;99.90;;;;;;5085584;28;20370;-68
2021/12/14 01:25:03;;;;;;;97.07;33.97;;;-0.50;99.90;;;;;;5100052;28;20217;-67
2021/12/14 01:27:55;;;;;;;97.57;30.57;;;-0.40;99.90;;;;;;5076622;28;20351;-68
2021/12/14 01:30:56;;;;;;;92.50;31.17;;;-0.30;99.90;;;;;;5086821;28;20707;-69
2021/12/14 01:33:48;;;;;;;81.83;29.13;;;-0.20;99.90;;;;;;5093913;28;20368;-68
2021/12/14 01:36:42;;;;;;;84.77;30.50;;;-0.30;99.90;;;;;;5084242;28;20518;-71
2021/12/14 01:39:48;;;;;;;82.77;28.57;;;-0.20;99.90;;;;;;5086699;28;20229;-69
2021/12/14 01:42:41;;;;;;;93.77;31.70;;;-0.30;99.90;;;;;;5079036;28;20218;-68
2021/12/14 01:45:31;;;;;;;81.23;30.37;;;-0.50;99.90;;;;;;5082252;28;20226;-70
2021/12/14 01:48:20;;;;;;;90.57;29.90;;;-0.40;99.90;;;;;;5082152;28;20566;-69
2021/12/14 01:51:41;;;;;;;82.73;30.30;;;-0.30;99.90;;;;;;5083975;28;20233;-68
2021/12/14 01:54:41;;;;;;;79.77;29.50;;;-0.40;99.90;;;;;;5082304;28;20594;-68
2021/12/14 01:57:32;;;;;;;85.97;29.73;;;-0.30;99.90;;;;;;5092364;28;20546;-68
2021/12/14 02:00:27;;;;;;;86.13;29.90;;;-0.30;99.90;;;;;;5085277;28;20285;-69
2021/12/14 02:03:16;;;;;;;70.50;27.97;;;-0.40;99.90;;;;;;5096348;28;20347;-69
2021/12/14 02:06:06;;;;;;;68.27;26.90;;;-0.40;99.90;;;;;;5082195;28;20238;-68
2021/12/14 02:08:58;;;;;;;62.33;26.07;;;-0.40;99.90;;;;;;5094849;28;20597;-69
2021/12/14 02:11:50;;;;;;;64.33;25.67;;;-0.70;99.90;;;;;;5082004;28;20294;-69
2021/12/14 02:14:39;;;;;;;61.57;24.37;;;-0.70;99.90;;;;;;5083155;28;20817;-69
2021/12/14 02:17:29;;;;;;;61.43;24.17;;;-0.70;99.90;;;;;;5075847;28;20221;-70
2021/12/14 02:20:22;;;;;;;66.23;25.23;;;-0.70;99.90;;;;;;5069437;28;20301;-69
2021/12/14 02:23:12;;;;;;;64.20;23.90;;;-0.70;99.90;;;;;;5080086;28;20232;-69
2021/12/14 02:26:03;;;;;;;64.73;24.63;;;-0.80;99.90;;;;;;5093593;28;20217;-68
2021/12/14 02:28:52;;;;;;;66.73;24.73;;;-0.70;99.90;;;;;;5089623;28;20368;-69
2021/12/14 02:31:41;;;;;;;79.43;25.80;;;-0.70;99.90;;;;;;5077558;28;20238;-69
2021/12/14 02:34:30;;;;;;;67.90;24.33;;;-0.70;99.90;;;;;;5078885;28;20224;-69
2021/12/14 02:37:24;;;;;;;69.70;24.57;;;-0.90;99.90;;;;;;5078222;28;20561;-69
2021/12/14 02:40:20;;;;;;;64.30;24.40;;;-1.00;99.90;;;;;;5079081;28;20630;-70
2021/12/14 02:43:09;;;;;;;67.37;24.20;;;-1.00;99.90;;;;;;5073029;28;20279;-68
2021/12/14 02:46:09;;;;;;;63.23;23.33;;;-0.90;99.90;;;;;;5077640;28;20226;-69
2021/12/14 02:49:11;;;;;;;73.43;24.23;;;-0.70;99.90;;;;;;5091039;28;20706;-67
2021/12/14 02:52:04;;;;;;;77.60;24.77;;;-0.80;99.90;;;;;;5076957;28;20229;-69
2021/12/14 02:54:56;;;;;;;69.00;25.20;;;-0.70;99.90;;;;;;5079456;28;20223;-69
2021/12/14 02:57:57;;;;;;;74.70;25.27;;;-0.70;99.90;;;;;;5077522;28;20321;-70
2021/12/14 03:00:55;;;;;;;69.63;24.13;;;-0.70;99.90;;;;;;5077517;28;20297;-68
2021/12/14 03:03:44;;;;;;;66.73;23.90;;;-0.80;99.90;;;;;;5088582;27;20253;-68
2021/12/14 03:06:45;;;;;;;64.50;23.63;;;-0.80;99.90;;;;;;5080350;28;20397;-68
2021/12/14 03:09:40;;;;;;;68.43;25.10;;;-0.90;99.90;;;;;;5077339;28;20876;-68
2021/12/14 03:12:34;;;;;;;72.40;25.30;;;-0.90;99.90;;;;;;5073678;28;20261;-69
2021/12/14 03:15:27;;;;;;;68.70;24.07;;;-0.80;99.90;;;;;;5075238;28;20226;-69
2021/12/14 03:18:19;;;;;;;65.07;25.13;;;-0.90;99.90;;;;;;5096541;28;20221;-69
2021/12/14 03:21:11;;;;;;;65.17;25.10;;;-0.80;99.90;;;;;;5098914;28;20220;-69
2021/12/14 03:24:04;;;;;;;64.10;24.90;;;-0.90;99.90;;;;;;5082253;28;20227;-69
2021/12/14 03:26:55;;;;;;;58.77;23.67;;;-0.90;99.90;;;;;;5080782;27;20229;-69
2021/12/14 03:29:44;;;;;;;69.17;25.53;;;-1.00;99.90;;;;;;5086651;28;20216;-68
2021/12/14 03:32:36;;;;;;;61.63;22.67;;;-1.00;99.90;;;;;;5083613;28;20218;-69
2021/12/14 03:35:36;;;;;;;66.63;23.53;;;-1.00;99.90;;;;;;5085656;27;20230;-69
2021/12/14 03:38:29;;;;;;;61.87;24.47;;;-0.90;99.90;;;;;;5096125;27;20318;-68
2021/12/14 03:41:23;;;;;;;62.93;24.03;;;-0.90;99.90;;;;;;5097345;27;20348;-70
2021/12/14 03:44:16;;;;;;;64.40;25.00;;;-0.90;99.90;;;;;;5083104;28;20223;-69
2021/12/14 03:47:08;;;;;;;69.70;25.87;;;-1.00;99.90;;;;;;5085046;28;20838;-69
2021/12/14 03:50:06;;;;;;;61.37;23.53;;;-1.00;99.90;;;;;;5081669;28;20216;-70
2021/12/14 03:52:55;;;;;;;49.00;20.60;;;-0.90;99.90;;;;;;5086881;28;20217;-69
2021/12/14 03:55:48;;;;;;;50.80;21.03;;;-0.90;99.90;;;;;;5095504;27;20539;-69
2021/12/14 03:58:40;;;;;;;50.77;21.80;;;-0.80;99.90;;;;;;5101359;27;20213;-70
2021/12/14 04:01:34;;;;;;;52.87;21.50;;;-0.90;99.90;;;;;;5083035;27;20319;-69
2021/12/14 04:04:29;;;;;;;54.70;22.50;;;-0.90;99.90;;;;;;5080824;28;20703;-69
2021/12/14 04:07:21;;;;;;;50.13;21.37;;;-1.00;99.90;;;;;;5095657;27;20230;-70
2021/12/14 04:10:29;;;;;;;54.47;21.03;;;-1.00;99.90;;;;;;5080285;28;20250;-70
2021/12/14 04:13:21;;;;;;;54.57;21.37;;;-1.10;99.90;;;;;;5088379;28;20217;-70
2021/12/14 04:16:13;;;;;;;51.03;20.37;;;-1.10;99.90;;;;;;5099938;27;20334;-68
2021/12/14 04:19:05;;;;;;;45.80;19.20;;;-1.10;99.90;;;;;;5070822;28;20236;-68
2021/12/14 04:21:56;;;;;;;49.93;21.00;;;-1.10;99.90;;;;;;5084280;28;20362;-70
2021/12/14 04:24:53;;;;;;;46.77;20.40;;;-1.10;99.90;;;;;;5078733;28;20224;-71
2021/12/14 04:27:44;;;;;;;49.10;20.40;;;-1.10;99.90;;;;;;5082518;28;20224;-70
2021/12/14 04:30:34;;;;;;;47.23;19.07;;;-1.10;99.90;;;;;;5084860;28;20217;-70
2021/12/14 04:33:26;;;;;;;52.73;20.70;;;-1.00;99.90;;;;;;5080152;28;20711;-69
2021/12/14 04:36:19;;;;;;;51.27;20.53;;;-1.20;99.90;;;;;;5082879;28;21404;-69
2021/12/14 04:39:32;;;;;;;46.73;20.10;;;-1.10;99.90;;;;;;5083779;28;20217;-70
2021/12/14 04:51:58;;;;;;;50.20;19.83;;;-1.00;99.90;;;;;;5078466;28;20596;-69
2021/12/14 04:54:52;;;;;;;49.87;19.70;;;-1.10;99.90;;;;;;5096205;27;20216;-70
2021/12/14 04:57:45;;;;;;;51.73;20.77;;;-1.20;99.90;;;;;;5083832;28;20213;-69
2021/12/14 05:00:38;;;;;;;47.30;21.07;;;-1.20;99.90;;;;;;5084341;28;20218;-68
2021/12/14 05:03:44;;;;;;;57.73;23.17;;;-1.10;99.90;;;;;;5083770;28;20213;-67
2021/12/14 05:06:47;;;;;;;49.03;21.47;;;-1.10;99.90;;;;;;5084628;28;20441;-69
2021/12/14 05:09:38;;;;;;;60.33;23.30;;;-1.10;99.90;;;;;;5097510;27;20338;-68
2021/12/14 05:12:38;;;;;;;56.90;22.47;;;-1.20;99.90;;;;;;5085232;28;20310;-68
2021/12/14 05:15:40;;;;;;;54.33;21.23;;;-1.20;99.90;;;;;;5082375;28;20223;-69
2021/12/14 05:18:32;;;;;;;60.30;23.70;;;-1.40;99.90;;;;;;5090454;28;20246;-69
2021/12/14 05:21:25;;;;;;;63.33;24.07;;;-1.40;99.90;;;;;;5096516;28;20331;-69
2021/12/14 05:24:23;;;;;;;62.20;22.50;;;-1.20;99.90;;;;;;5082839;28;20262;-69
2021/12/14 05:27:23;;;;;;;61.57;24.57;;;-1.20;99.90;;;;;;5082242;28;20287;-70
2021/12/14 05:30:18;;;;;;;60.47;23.20;;;-1.10;99.90;;;;;;5078382;28;20215;-69
2021/12/14 05:33:20;;;;;;;64.00;24.53;;;-1.20;99.90;;;;;;5081280;28;20225;-67
2021/12/14 05:36:14;;;;;;;56.40;22.57;;;-1.10;99.90;;;;;;5084177;28;20401;-69
2021/12/14 05:39:17;;;;;;;56.17;23.30;;;-1.20;99.90;;;;;;5083084;28;20226;-69
2021/12/14 05:45:48;;;;;;;58.53;24.70;;;-1.20;99.90;;;;;;5081814;28;20216;-69
2021/12/14 05:48:41;;;;;;;56.77;22.87;;;-1.10;99.90;;;;;;5080379;28;20290;-71
2021/12/14 05:51:31;;;;;;;60.07;24.23;;;-1.10;99.90;;;;;;5098557;28;20757;-71
2021/12/14 05:54:22;;;;;;;59.47;23.73;;;-1.10;99.90;;;;;;5084321;28;20222;-69
2021/12/14 05:57:16;;;;;;;54.10;23.73;;;-1.20;99.90;;;;;;5082250;28;20597;-69
2021/12/14 06:00:08;;;;;;;53.40;22.00;;;-1.10;99.90;;;;;;5086153;28;20222;-69
2021/12/14 06:03:04;;;;;;;53.80;23.43;;;-1.20;99.90;;;;;;5105791;28;20236;-70
2021/12/14 06:05:56;;;;;;;57.10;23.10;;;-1.10;99.90;;;;;;5099384;28;20220;-69
2021/12/14 06:08:46;;;;;;;54.67;22.93;;;-1.20;99.90;;;;;;5100299;27;20627;-69
2021/12/14 06:11:47;;;;;;;49.03;22.27;;;-1.10;99.90;;;;;;5086584;28;20228;-70
2021/12/14 06:14:43;;;;;;;53.53;22.37;;;-1.10;99.90;;;;;;5088319;28;20221;-70
2021/12/14 06:17:35;;;;;;;50.20;20.70;;;-1.10;99.90;;;;;;5101179;28;20297;-70
2021/12/14 06:20:27;;;;;;;56.13;22.17;;;-1.30;99.90;;;;;;5095991;27;20341;-70
2021/12/14 06:23:29;;;;;;;55.03;23.33;;;-1.10;99.90;;;;;;5086260;28;20245;-68
2021/12/14 06:26:35;;;;;;;54.07;22.77;;;-1.10;99.90;;;;;;5084132;28;20216;-71
2021/12/14 06:29:27;;;;;;;49.40;22.63;;;-1.20;99.90;;;;;;5088540;27;20221;-70
2021/12/14 06:32:19;;;;;;;48.13;20.63;;;-1.20;99.90;;;;;;5100893;28;21214;-69
2021/12/14 06:35:11;;;;;;;51.10;22.30;;;-1.30;99.90;;;;;;5091801;27;20524;-70
2021/12/14 06:38:25;;;;;;;52.50;24.20;;;-1.30;99.90;;;;;;5087965;28;20216;-66
2021/12/14 06:41:18;;;;;;;52.60;22.87;;;-1.20;99.90;;;;;;5083829;28;20340;-68
2021/12/14 06:44:17;;;;;;;54.97;23.13;;;-1.20;99.90;;;;;;5087260;28;20225;-69
2021/12/14 06:47:06;;;;;;;52.80;22.47;;;-1.20;99.90;;;;;;5083597;28;20226;-67
2021/12/14 06:49:56;;;;;;;54.10;22.57;;;-1.30;99.90;;;;;;5085691;28;20662;-68
2021/12/14 06:52:54;;;;;;;51.60;22.67;;;-1.30;99.90;;;;;;5085032;28;20282;-68
2021/12/14 06:56:14;;;;;;;49.23;22.50;;;-1.10;99.90;;;;;;5061032;28;20318;-69
2021/12/14 06:59:23;;;;;;;54.37;23.37;;;-1.00;99.90;;;;;;5102505;28;20237;-67
2021/12/14 07:02:24;;;;;;;53.57;23.60;;;-1.10;99.90;;;;;;5084631;28;20307;-70
2021/12/14 07:05:22;;;;;;;54.57;23.30;;;-1.00;99.90;;;;;;5083963;28;20308;-69
2021/12/14 07:08:24;;;;;;;52.70;23.67;;;-1.10;99.90;;;;;;5084781;28;20233;-68
2021/12/14 07:11:18;;;;;;;55.27;23.23;;;-1.10;99.90;;;;;;5090789;28;20594;-69
2021/12/14 07:14:22;;;;;;;51.37;24.23;;;-0.90;99.90;;;;;;5102660;28;20732;-68
2021/12/14 07:17:17;;;;;;;52.13;22.53;;;-0.90;99.90;;;;;;5099477;27;20223;-67
2021/12/14 07:20:18;;;;;;;58.80;23.47;;;-1.10;99.90;;;;;;5098456;28;20701;-68
2021/12/14 07:23:20;;;;;;;61.40;24.83;;;-0.90;99.90;;;;;;5097296;28;20672;-67
2021/12/14 07:26:11;;;;;;;58.77;24.20;;;-0.80;99.90;;;;;;5101388;27;20216;-66
2021/12/14 07:29:00;;;;;;;61.20;24.13;;;-0.90;99.90;;;;;;5086249;28;20228;-67
2021/12/14 07:31:48;;;;;;;53.67;24.13;;;-0.90;99.90;;;;;;5083950;28;20229;-66
2021/12/14 07:34:39;;;;;;;60.10;24.53;;;-1.00;99.90;;;;;;5099654;28;20221;-67
2021/12/14 07:37:35;;;;;;;58.50;24.50;;;-1.00;99.90;;;;;;5098398;28;20236;-67
2021/12/14 07:40:32;;;;;;;65.00;26.03;;;-1.00;99.90;;;;;;5098745;28;20577;-69
2021/12/14 07:43:24;;;;;;;64.17;25.80;;;-1.00;99.90;;;;;;5102755;28;20217;-67
2021/12/14 07:46:27;;;;;;;61.97;25.27;;;-0.90;99.90;;;;;;5100951;28;20305;-67
2021/12/14 07:49:22;;;;;;;66.47;25.80;;;-0.90;99.90;;;;;;5100551;27;20237;-69
2021/12/14 07:52:16;;;;;;;69.20;26.40;;;-0.80;99.90;;;;;;5095009;28;20293;-66
2021/12/14 07:55:11;;;;;;;66.30;25.73;;;-0.90;99.90;;;;;;5097318;28;20224;-68
2021/12/14 07:57:59;;;;;;;65.50;25.07;;;-0.80;99.90;;;;;;5077644;28;20291;-66
2021/12/14 08:00:48;;;;;;;66.20;25.70;;;-0.90;99.90;;;;;;5077574;28;20220;-68
2021/12/14 08:03:38;;;;;;;57.77;25.43;;;-0.80;99.90;;;;;;5081787;28;20228;-67
2021/12/14 08:06:28;;;;;;;61.63;24.87;;;-0.70;99.90;;;;;;5098172;28;20229;-68
2021/12/14 08:09:44;;;;;;;64.50;25.77;;;-0.70;99.90;;;;;;5094416;28;20233;-68
2021/12/14 08:12:38;;;;;;;64.30;25.83;;;-0.70;99.90;;;;;;5096654;28;20605;-68
2021/12/14 08:15:30;;;;;;;65.90;23.90;;;-0.60;99.90;;;;;;5097807;27;20238;-68
2021/12/14 08:18:23;;;;;;;67.23;27.00;;;-0.60;99.90;;;;;;5084190;28;20226;-67
2021/12/14 08:21:15;;;;;;;66.20;26.43;;;-0.50;99.90;;;;;;5095127;28;20939;-67
2021/12/14 08:24:06;;;;;;;69.50;26.57;;;-0.50;99.90;;;;;;5097545;27;20300;-66
2021/12/14 08:27:00;;;;;;;56.07;24.97;;;-0.40;99.90;;;;;;5098269;27;20221;-67
2021/12/14 08:29:52;;;;;;;64.20;26.57;;;-0.50;99.90;;;;;;5080403;28;20217;-68
2021/12/14 08:32:43;;;;;;;70.03;26.27;;;-0.30;99.90;;;;;;5097030;28;20279;-67
2021/12/14 08:35:32;;;;;;;70.47;27.00;;;-0.40;99.90;;;;;;5096106;28;20233;-69
2021/12/14 08:38:21;;;;;;;69.57;26.67;;;-0.40;99.90;;;;;;5085398;28;20299;-68
2021/12/14 08:41:17;;;;;;;67.63;26.53;;;-0.30;99.90;;;;;;5089890;28;20220;-68
2021/12/14 08:44:11;;;;;;;62.43;25.43;;;-0.20;99.90;;;;;;5084612;28;20242;-67
2021/12/14 08:47:00;;;;;;;68.17;26.13;;;-0.10;99.90;;;;;;5098852;28;20223;-66
2021/12/14 08:49:49;;;;;;;62.93;25.97;;;-0.10;99.90;;;;;;5085545;27;20254;-68
2021/12/14 08:52:40;;;;;;;61.53;26.33;;;0.00;99.90;;;;;;5100246;27;20219;-69
2021/12/14 08:55:32;;;;;;;65.67;25.23;;;0.10;99.90;;;;;;5076926;28;20219;-69
2021/12/14 08:58:21;;;;;;;64.83;26.33;;;0.00;99.90;;;;;;5099647;28;20291;-66
2021/12/14 09:01:17;;;;;;;58.43;24.90;;;0.00;99.90;;;;;;5098189;28;20229;-69
2021/12/14 09:04:12;;;;;;;67.57;25.87;;;0.10;99.90;;;;;;5093226;28;20245;-67
2021/12/14 09:07:04;;;;;;;58.13;25.20;;;0.10;99.90;;;;;;5083409;28;20643;-67
2021/12/14 09:09:53;;;;;;;66.43;26.03;;;0.20;99.90;;;;;;5095150;28;20222;-68
2021/12/14 09:12:45;;;;;;;67.03;25.87;;;0.20;99.90;;;;;;5085942;28;20226;-67
2021/12/14 09:15:38;;;;;;;61.43;24.63;;;0.10;99.90;;;;;;5099489;28;20219;-65
2021/12/14 09:18:36;;;;;;;60.63;25.73;;;0.00;99.90;;;;;;5098783;28;20226;-67
2021/12/14 09:21:31;;;;;;;63.63;26.33;;;0.00;99.90;;;;;;5083974;28;20719;-68
2021/12/14 09:24:24;;;;;;;61.57;26.83;;;0.10;99.90;;;;;;5095582;28;20305;-67
2021/12/14 09:27:17;;;;;;;68.37;26.60;;;0.20;99.90;;;;;;5104153;28;20231;-66
2021/12/14 09:30:07;;;;;;;68.30;26.43;;;0.10;99.90;;;;;;5096205;28;20231;-71
2021/12/14 09:32:56;;;;;;;61.53;25.90;;;0.20;99.90;;;;;;5082554;28;20330;-68
2021/12/14 09:35:48;;;;;;;65.43;26.40;;;0.20;99.90;;;;;;5099800;28;20225;-69
2021/12/14 09:38:41;;;;;;;65.67;26.23;;;0.30;99.90;;;;;;5097942;28;20244;-68
2021/12/14 09:41:33;;;;;;;67.87;26.03;;;0.20;99.90;;;;;;5099661;28;20215;-67
2021/12/14 09:44:26;;;;;;;64.00;26.63;;;0.30;99.90;;;;;;5096064;28;20579;-67
2021/12/14 09:47:17;;;;;;;63.83;26.13;;;0.20;99.90;;;;;;5083859;28;20219;-67
2021/12/14 09:50:11;;;;;;;62.33;25.87;;;0.30;99.90;;;;;;5080710;28;20226;-65
2021/12/14 09:53:06;;;;;;;60.67;25.83;;;0.30;99.90;;;;;;5092923;28;20238;-66
2021/12/14 09:55:57;;;;;;;61.40;25.60;;;0.40;99.90;;;;;;5076718;28;20219;-68
2021/12/14 09:58:51;;;;;;;66.97;26.20;;;0.40;99.90;;;;;;5082644;28;20267;-69
2021/12/14 10:01:44;;;;;;;63.23;26.77;;;0.50;99.90;;;;;;5068971;28;20310;-70
2021/12/14 10:04:36;;;;;;;75.13;27.20;;;0.40;99.90;;;;;;5096961;28;20227;-69
2021/12/14 10:07:26;;;;;;;66.03;26.87;;;0.30;99.90;;;;;;5097195;28;20789;-66
2021/12/14 10:10:21;;;;;;;66.97;27.40;;;0.40;99.90;;;;;;5098926;28;20279;-69
2021/12/14 10:13:11;;;;;;;73.43;27.83;;;0.40;99.90;;;;;;5084982;28;20695;-67
2021/12/14 10:16:02;;;;;;;63.63;26.93;;;0.50;99.90;;;;;;5092571;28;20223;-69
2021/12/14 10:18:53;;;;;;;68.37;28.17;;;0.50;99.90;;;;;;5078899;28;20216;-69
2021/12/14 10:21:45;;;;;;;66.63;27.77;;;0.60;99.90;;;;;;5077700;28;20238;-68
2021/12/14 10:24:36;;;;;;;72.07;28.13;;;0.50;99.90;;;;;;5077066;28;20220;-66
2021/12/14 10:27:29;;;;;;;66.00;28.00;;;0.60;99.90;;;;;;5074632;28;20227;-69
2021/12/14 10:30:21;;;;;;;67.67;27.67;;;0.60;99.90;;;;;;5078623;28;20215;-68
2021/12/14 10:33:12;;;;;;;65.13;26.47;;;0.70;99.90;;;;;;5075256;28;20227;-67
2021/12/14 10:36:06;;;;;;;68.80;28.47;;;0.60;99.90;;;;;;5079106;28;20791;-66
2021/12/14 10:39:08;;;;;;;70.33;28.83;;;0.70;99.90;;;;;;5078212;28;20303;-68
2021/12/14 10:45:09;;;;;;;69.40;27.50;;;0.70;99.90;;;;;;5080800;28;20219;-66
2021/12/14 10:47:58;;;;;;;67.43;29.13;;;0.70;99.90;;;;;;5079469;28;21054;-67
2021/12/14 10:50:49;;;;;;;68.80;27.77;;;0.80;99.90;;;;;;5063481;28;20307;-67
2021/12/14 10:53:42;;;;;;;69.40;27.73;;;0.70;99.90;;;;;;5082198;28;20238;-68
2021/12/14 10:56:56;;;;;;;72.83;29.10;;;0.80;99.90;;;;;;5077045;28;20215;-68
2021/12/14 10:59:48;;;;;;;80.60;29.10;;;0.80;99.90;;;;;;5078575;28;20316;-68
2021/12/14 11:02:42;;;;;;;71.23;28.73;;;0.70;99.90;;;;;;5082470;28;20227;-67
2021/12/14 11:05:34;;;;;;;76.40;30.30;;;0.80;99.90;;;;;;5074942;28;20243;-67
2021/12/14 11:08:39;;;;;;;77.23;30.47;;;0.80;99.90;;;;;;5077542;28;20219;-69
2021/12/14 11:11:35;;;;;;;72.33;30.40;;;0.80;99.90;;;;;;5079813;28;20226;-67
2021/12/14 11:14:27;;;;;;;79.40;31.57;;;0.90;99.90;;;;;;5077607;28;20582;-70
2021/12/14 11:20:32;;;;;;;76.97;30.53;;;0.80;99.90;;;;;;5099995;27;20799;-67
2021/12/14 11:23:24;;;;;;;78.60;30.93;;;0.80;99.90;;;;;;5083488;28;20219;-69
2021/12/14 11:26:17;;;;;;;85.53;31.50;;;0.90;99.90;;;;;;5100379;27;20223;-68
2021/12/14 12:06:01;;;;;;;83.60;34.67;;;1.00;99.90;;;;;;5095447;28;20203;-68
2021/12/14 12:12:13;;;;;;;101.33;35.33;;;1.00;99.90;;;;;;5096396;28;20220;-68
2021/12/14 12:15:06;;;;;;;86.23;35.37;;;1.00;99.90;;;;;;5076614;28;20219;-68
2021/12/14 12:17:59;;;;;;;83.33;34.83;;;1.00;99.90;;;;;;5088208;28;20339;-68
2021/12/14 12:20:49;;;;;;;94.87;37.53;;;1.10;99.90;;;;;;5099000;28;20264;-68
2021/12/14 12:23:42;;;;;;;91.57;36.80;;;1.10;99.90;;;;;;5079177;28;20307;-69
2021/12/14 12:26:31;;;;;;;100.07;37.70;;;1.10;99.90;;;;;;5080596;28;20235;-69
2021/12/14 12:29:26;;;;;;;98.77;37.83;;;1.10;99.90;;;;;;5092536;28;20262;-68
2021/12/14 12:32:23;;;;;;;91.13;34.57;;;1.10;99.90;;;;;;5100452;28;20231;-68
2021/12/14 12:35:23;;;;;;;94.50;37.80;;;1.10;99.90;;;;;;5095414;28;21427;-68
2021/12/14 12:38:36;;;;;;;100.73;38.17;;;1.10;99.90;;;;;;5083470;28;20226;-69
2021/12/14 12:41:32;;;;;;;96.27;38.47;;;1.10;99.90;;;;;;5097199;28;20233;-69
2021/12/14 12:44:25;;;;;;;97.63;37.93;;;1.20;99.90;;;;;;5099274;27;20211;-70
2021/12/14 12:47:16;;;;;;;101.17;38.23;;;1.20;99.90;;;;;;5083634;28;20730;-67
2021/12/14 12:50:06;;;;;;;86.47;36.40;;;1.20;99.90;;;;;;5098871;28;20258;-71
2021/12/14 12:52:56;;;;;;;92.77;37.33;;;1.20;99.90;;;;;;5095071;28;20219;-67
2021/12/14 12:55:45;;;;;;;94.40;38.00;;;1.30;99.90;;;;;;5084613;28;20820;-67
2021/12/14 12:58:37;;;;;;;105.40;37.53;;;1.30;99.90;;;;;;5086781;28;20215;-68
2021/12/14 13:01:26;;;;;;;100.33;37.27;;;1.30;99.90;;;;;;5095172;28;20218;-69
2021/12/14 13:04:15;;;;;;;102.63;37.37;;;1.30;99.90;;;;;;5097432;28;20230;-68
2021/12/14 13:07:09;;;;;;;96.17;38.07;;;1.30;99.90;;;;;;5097457;28;20275;-68
2021/12/14 13:10:16;;;;;;;111.60;38.73;;;1.20;99.90;;;;;;5084446;28;20611;-70
2021/12/14 13:13:10;;;;;;;97.53;37.97;;;1.30;99.90;;;;;;5096724;28;20349;-70
2021/12/14 13:16:07;;;;;;;106.23;39.83;;;1.30;99.90;;;;;;5100582;28;20656;-68
2021/12/14 13:18:58;;;;;;;97.13;38.67;;;1.30;99.90;;;;;;5101184;28;20333;-68
2021/12/14 13:21:53;;;;;;;104.83;39.50;;;1.30;99.90;;;;;;5090723;28;20237;-68
2021/12/14 13:24:45;;;;;;;114.73;40.50;;;1.30;99.90;;;;;;5083257;28;20210;-70
2021/12/14 13:27:40;;;;;;;107.03;39.23;;;1.20;99.90;;;;;;5099399;28;20219;-67
2021/12/14 13:30:31;;;;;;;111.07;40.27;;;1.30;99.90;;;;;;5099733;28;20226;-68
2021/12/14 13:33:27;;;;;;;112.37;41.17;;;1.30;99.90;;;;;;5096429;28;20230;-68
2021/12/14 13:36:16;;;;;;;115.53;41.23;;;1.30;99.90;;;;;;5097880;28;20245;-68
2021/12/14 13:39:07;;;;;;;115.93;41.93;;;1.30;99.90;;;;;;5097215;28;20234;-68
2021/12/14 13:42:44;;;;;;;118.73;40.87;;;1.20;99.90;;;;;;5085742;28;20222;-68
2021/12/14 13:45:44;;;;;;;119.33;41.27;;;1.20;99.90;;;;;;5096070;28;20214;-69
2021/12/14 13:48:37;;;;;;;119.37;42.50;;;1.20;99.90;;;;;;5097956;28;20210;-70
2021/12/14 13:51:28;;;;;;;117.97;42.07;;;1.20;99.90;;;;;;5096626;28;20697;-69
2021/12/14 13:54:17;;;;;;;119.17;43.20;;;1.20;99.90;;;;;;5083182;28;20252;-68
2021/12/14 13:57:06;;;;;;;127.73;43.67;;;1.30;99.90;;;;;;5099500;28;20229;-69
2021/12/14 14:00:18;;;;;;;120.93;43.60;;;1.20;99.90;;;;;;5093889;28;20265;-69
2021/12/14 14:03:08;;;;;;;128.53;42.97;;;1.30;99.90;;;;;;5100137;28;20234;-68
2021/12/14 14:06:01;;;;;;;133.27;44.17;;;1.30;99.90;;;;;;5095624;28;20238;-69
2021/12/14 14:08:54;;;;;;;141.97;45.83;;;1.30;99.90;;;;;;5082284;28;20218;-68
2021/12/14 14:11:49;;;;;;;128.90;45.00;;;1.40;99.90;;;;;;5084182;28;20238;-68
2021/12/14 14:14:39;;;;;;;129.00;43.13;;;1.30;99.90;;;;;;5085689;28;20218;-70
2021/12/14 14:17:32;;;;;;;133.67;43.90;;;1.30;99.90;;;;;;5102893;28;20380;-67
2021/12/14 14:27:36;;;;;;;134.70;42.90;;;1.20;99.90;;;;;;5078036;28;20245;-67
2021/12/14 14:30:51;;;;;;;142.83;45.33;;;1.20;99.90;;;;;;5091151;28;20246;-67
2021/12/14 14:33:52;;;;;;;134.83;43.93;;;1.20;99.90;;;;;;5079895;28;20400;-70
2021/12/14 14:36:43;;;;;;;134.23;42.50;;;1.30;99.90;;;;;;5103292;27;20218;-67
2021/12/14 14:39:41;;;;;;;140.00;45.70;;;1.30;99.90;;;;;;5086977;27;20318;-69
2021/12/14 14:42:34;;;;;;;145.40;47.43;;;1.30;99.90;;;;;;5088001;28;20249;-70
2021/12/14 14:45:28;;;;;;;142.17;44.93;;;1.30;99.90;;;;;;5101622;28;20619;-67
2021/12/14 14:48:21;;;;;;;138.03;44.43;;;1.30;99.90;;;;;;5098888;28;20215;-68
2021/12/14 14:51:10;;;;;;;143.57;45.70;;;1.30;99.90;;;;;;5087851;28;20231;-67
2021/12/14 14:53:59;;;;;;;132.67;43.53;;;1.30;99.90;;;;;;5087209;28;21220;-69
2021/12/14 14:56:47;;;;;;;143.23;46.00;;;1.30;99.90;;;;;;5071085;28;20216;-67
2021/12/14 14:59:41;;;;;;;138.67;44.37;;;1.30;99.90;;;;;;5079947;28;20322;-70
2021/12/14 15:02:48;;;;;;;133.03;44.70;;;1.40;99.90;;;;;;5097818;27;20233;-68
2021/12/14 15:05:42;;;;;;;132.43;43.50;;;1.30;99.90;;;;;;5092315;28;20210;-67
2021/12/14 15:08:42;;;;;;;136.97;44.03;;;1.40;99.90;;;;;;5100731;28;20286;-71
2021/12/14 15:11:36;;;;;;;134.07;44.87;;;1.40;99.90;;;;;;5082684;28;20211;-69
2021/12/14 15:14:31;;;;;;;134.43;44.47;;;1.40;99.90;;;;;;5098678;28;20242;-68
2021/12/14 15:17:25;;;;;;;132.40;44.13;;;1.40;99.90;;;;;;5093706;28;20307;-68
2021/12/14 15:20:28;;;;;;;131.87;44.27;;;1.50;99.90;;;;;;5103293;28;20218;-68
2021/12/14 15:23:24;;;;;;;138.27;45.60;;;1.50;99.90;;;;;;5085180;28;20229;-69
2021/12/14 15:26:14;;;;;;;130.90;44.53;;;1.50;99.90;;;;;;5100717;28;20772;-66
2021/12/14 15:29:25;;;;;;;121.93;44.97;;;1.50;99.90;;;;;;5100326;28;20700;-65
2021/12/14 15:32:20;;;;;;;130.73;44.00;;;1.60;99.90;;;;;;5087085;28;20226;-67
2021/12/14 15:35:16;;;;;;;142.50;44.53;;;1.50;99.90;;;;;;5103234;28;20238;-66
2021/12/14 15:38:09;;;;;;;130.33;45.87;;;1.60;99.90;;;;;;5102093;28;20955;-67
2021/12/14 15:41:03;;;;;;;128.67;44.37;;;1.60;99.90;;;;;;5101649;28;20215;-67
2021/12/14 15:43:56;;;;;;;135.43;45.13;;;1.60;99.90;;;;;;5096868;27;20220;-67
2021/12/14 15:46:47;;;;;;;130.50;44.47;;;1.60;99.90;;;;;;5087416;28;20227;-68
2021/12/14 15:49:36;;;;;;;146.77;46.60;;;1.60;99.90;;;;;;5099739;28;20702;-68
2021/12/14 15:52:26;;;;;;;149.47;48.60;;;1.60;99.90;;;;;;5091955;28;20278;-68
2021/12/14 15:55:18;;;;;;;152.60;48.67;;;1.60;99.90;;;;;;5100050;28;20250;-68
2021/12/14 15:58:12;;;;;;;149.57;46.77;;;1.70;99.90;;;;;;5102443;27;20340;-69